Time;durP1;ratioP1;P1;durP2;ratioP2;P2;SDS_P1;SDS_P2;PMS_P1;PMS_P2;Temp;Humidity;BMP_temperature;BMP_pressure;BME280_temperature;BME280_humidity;BME280_pressure;Samples;Min_cycle;Max_cycle;Signal;HPM_P1;HPM_P2
2023/05/31 00:01:32;;;;;;;9.98;5.85;;;;;;;;;;5020255;28;20495;-70
2023/05/31 00:03:57;;;;;;;9.55;5.90;;;;;;;;;;5022651;28;20113;-70
2023/05/31 00:06:22;;;;;;;10.20;5.75;;;;;;;;;;5010652;28;20033;-70
2023/05/31 00:08:48;;;;;;;9.57;5.97;;;;;;;;;;5016785;28;20042;-71
2023/05/31 00:11:13;;;;;;;12.55;5.43;;;;;;;;;;5023105;28;20029;-70
2023/05/31 00:13:38;;;;;;;9.40;5.95;;;;;;;;;;5022426;28;20025;-70
2023/05/31 00:16:05;;;;;;;10.15;5.75;;;;;;;;;;5023702;28;20108;-70
2023/05/31 00:18:31;;;;;;;9.68;5.55;;;;;;;;;;5022248;28;20108;-70
2023/05/31 00:20:56;;;;;;;11.48;6.35;;;;;;;;;;5023780;28;20128;-71
2023/05/31 00:23:21;;;;;;;9.68;5.60;;;;;;;;;;5022958;28;20121;-70
2023/05/31 00:25:47;;;;;;;10.35;5.60;;;;;;;;;;5023749;28;20029;-71
2023/05/31 00:28:12;;;;;;;11.65;6.05;;;;;;;;;;5023966;28;20424;-71
2023/05/31 00:30:37;;;;;;;11.48;5.38;;;;;;;;;;5023654;28;20069;-70
2023/05/31 00:33:04;;;;;;;9.35;5.75;;;;;;;;;;5022027;28;20545;-71
2023/05/31 00:35:29;;;;;;;9.73;5.57;;;;;;;;;;5022181;28;20048;-70
2023/05/31 00:37:55;;;;;;;11.60;5.70;;;;;;;;;;5022754;28;20029;-70
2023/05/31 00:40:20;;;;;;;8.40;5.65;;;;;;;;;;5024601;28;20029;-71
2023/05/31 00:42:45;;;;;;;10.50;6.20;;;;;;;;;;5031634;28;20044;-70
2023/05/31 00:45:11;;;;;;;11.27;5.75;;;;;;;;;;5022398;28;20067;-70
2023/05/31 00:47:36;;;;;;;8.15;5.32;;;;;;;;;;5032905;28;20041;-71
2023/05/31 00:50:02;;;;;;;10.23;5.22;;;;;;;;;;5026491;28;20148;-70
2023/05/31 00:52:29;;;;;;;10.35;6.32;;;;;;;;;;5027813;28;20137;-70
2023/05/31 00:54:55;;;;;;;8.60;5.43;;;;;;;;;;5025435;28;20116;-71
2023/05/31 00:57:20;;;;;;;9.95;5.80;;;;;;;;;;5026994;28;20171;-71
2023/05/31 00:59:46;;;;;;;11.70;5.75;;;;;;;;;;5026990;28;20454;-71
2023/05/31 01:02:11;;;;;;;7.72;5.25;;;;;;;;;;5026578;28;20038;-71
2023/05/31 01:04:37;;;;;;;11.93;5.60;;;;;;;;;;5026569;28;20037;-71
2023/05/31 01:07:03;;;;;;;10.43;5.68;;;;;;;;;;5027396;28;20026;-70
2023/05/31 01:09:30;;;;;;;15.25;6.30;;;;;;;;;;5026667;28;20030;-70
2023/05/31 01:12:26;;;;;;;10.90;5.65;;;;;;;;;;5024713;28;20462;-70
2023/05/31 01:15:13;;;;;;;17.70;6.05;;;;;;;;;;5017775;28;20176;-71
2023/05/31 01:18:00;;;;;;;9.93;5.50;;;;;;;;;;5024857;28;20113;-71
2023/05/31 01:20:31;;;;;;;9.95;6.03;;;;;;;;;;5026067;28;20048;-71
2023/05/31 01:23:25;;;;;;;10.48;5.63;;;;;;;;;;5026550;28;20028;-70
2023/05/31 01:25:58;;;;;;;12.98;6.07;;;;;;;;;;5026404;28;20167;-70
2023/05/31 01:28:25;;;;;;;;;;;;;;;;;;5027752;28;20028;-71
2023/05/31 01:30:51;;;;;;;11.27;5.25;;;;;;;;;;5025317;28;20004;-70
2023/05/31 01:33:17;;;;;;;10.93;6.07;;;;;;;;;;5022217;28;20030;-71
2023/05/31 01:35:42;;;;;;;14.82;6.53;;;;;;;;;;5026227;28;20040;-71
2023/05/31 01:38:08;;;;;;;11.07;5.50;;;;;;;;;;5023817;28;20051;-71
2023/05/31 01:40:34;;;;;;;10.77;5.90;;;;;;;;;;5024329;28;20018;-70
2023/05/31 01:43:00;;;;;;;14.18;6.03;;;;;;;;;;5026379;28;20106;-70
2023/05/31 01:45:26;;;;;;;9.02;5.82;;;;;;;;;;5025020;28;20068;-70
2023/05/31 01:48:00;;;;;;;13.60;6.25;;;;;;;;;;5026022;28;20109;-70
2023/05/31 01:50:25;;;;;;;;;;;;;;;;;;5019917;28;20034;-70
2023/05/31 01:52:51;;;;;;;10.13;5.28;;;;;;;;;;5021690;28;19931;-70
2023/05/31 01:55:16;;;;;;;10.93;5.75;;;;;;;;;;5022119;28;20124;-71
2023/05/31 01:57:43;;;;;;;11.48;6.32;;;;;;;;;;5025694;28;20045;-70
2023/05/31 02:00:11;;;;;;;11.57;6.03;;;;;;;;;;5026234;28;20049;-70
2023/05/31 02:02:41;;;;;;;13.30;6.13;;;;;;;;;;5026459;28;20033;-70
2023/05/31 02:05:08;;;;;;;11.23;5.90;;;;;;;;;;5016891;28;20032;-70
2023/05/31 02:07:44;;;;;;;10.88;6.03;;;;;;;;;;5032252;28;20075;-70
2023/05/31 02:10:11;;;;;;;13.73;6.05;;;;;;;;;;5035837;28;20021;-70
2023/05/31 02:12:37;;;;;;;14.90;6.50;;;;;;;;;;5029177;28;20407;-71
2023/05/31 02:15:03;;;;;;;12.02;6.10;;;;;;;;;;5021046;28;20034;-71
2023/05/31 02:17:32;;;;;;;11.48;6.10;;;;;;;;;;5026218;28;20026;-70
2023/05/31 02:19:58;;;;;;;14.68;6.90;;;;;;;;;;5024499;28;20525;-71
2023/05/31 02:22:24;;;;;;;15.40;7.25;;;;;;;;;;5013069;28;20492;-70
2023/05/31 02:24:49;;;;;;;11.75;6.60;;;;;;;;;;5024592;28;20037;-71
2023/05/31 02:27:15;;;;;;;10.32;6.03;;;;;;;;;;5009388;28;20515;-70
2023/05/31 02:29:40;;;;;;;10.93;6.53;;;;;;;;;;5023219;28;20518;-71
2023/05/31 02:32:07;;;;;;;11.75;6.70;;;;;;;;;;5018505;28;20037;-70
2023/05/31 02:34:33;;;;;;;12.88;7.00;;;;;;;;;;5025449;28;20025;-70
2023/05/31 02:37:00;;;;;;;13.65;7.38;;;;;;;;;;5024308;28;20055;-70
2023/05/31 02:39:25;;;;;;;12.35;6.60;;;;;;;;;;5020829;28;20411;-71
2023/05/31 02:41:51;;;;;;;14.60;7.85;;;;;;;;;;5024872;28;20035;-70
2023/05/31 02:44:16;;;;;;;13.10;6.53;;;;;;;;;;5025263;28;20026;-70
2023/05/31 02:46:41;;;;;;;16.02;6.82;;;;;;;;;;5024890;28;20025;-70
2023/05/31 02:49:07;;;;;;;13.43;6.53;;;;;;;;;;5025658;28;20523;-70
2023/05/31 02:51:32;;;;;;;11.80;6.88;;;;;;;;;;5024695;28;20575;-70
2023/05/31 02:53:58;;;;;;;11.10;6.50;;;;;;;;;;5024089;28;20143;-70
2023/05/31 02:56:23;;;;;;;13.68;6.78;;;;;;;;;;5020030;28;20045;-70
2023/05/31 02:58:49;;;;;;;12.57;6.82;;;;;;;;;;5024808;28;20108;-70
2023/05/31 03:01:14;;;;;;;13.13;6.70;;;;;;;;;;5018603;28;20009;-70
2023/05/31 03:03:40;;;;;;;15.63;7.63;;;;;;;;;;5022319;28;20099;-70
2023/05/31 03:06:05;;;;;;;12.50;6.55;;;;;;;;;;5024288;28;20581;-70
2023/05/31 03:08:31;;;;;;;14.25;6.55;;;;;;;;;;5019824;28;20180;-70
2023/05/31 03:10:56;;;;;;;13.65;6.72;;;;;;;;;;5024172;28;20491;-70
2023/05/31 03:13:22;;;;;;;11.93;6.72;;;;;;;;;;5023951;28;20457;-70
2023/05/31 03:15:47;;;;;;;12.57;6.93;;;;;;;;;;5018002;28;20414;-70
2023/05/31 03:18:13;;;;;;;12.60;6.53;;;;;;;;;;5021556;28;20022;-70
2023/05/31 03:20:38;;;;;;;12.52;6.80;;;;;;;;;;5008553;28;20048;-70
2023/05/31 03:23:03;;;;;;;12.82;6.70;;;;;;;;;;5022914;28;20090;-70
2023/05/31 03:25:29;;;;;;;12.18;7.28;;;;;;;;;;5025114;28;20071;-70
2023/05/31 03:27:54;;;;;;;14.57;6.68;;;;;;;;;;5023131;28;20041;-70
2023/05/31 03:30:19;;;;;;;12.45;6.57;;;;;;;;;;5022951;28;20049;-70
2023/05/31 03:32:45;;;;;;;10.82;6.57;;;;;;;;;;5034402;28;20040;-70
2023/05/31 03:35:10;;;;;;;10.55;6.35;;;;;;;;;;5033205;28;20033;-70
2023/05/31 03:37:36;;;;;;;12.68;6.53;;;;;;;;;;5024094;28;20049;-70
2023/05/31 03:40:01;;;;;;;11.80;7.28;;;;;;;;;;5012865;28;20017;-70
2023/05/31 03:42:27;;;;;;;12.45;6.55;;;;;;;;;;5024520;28;20033;-70
2023/05/31 03:44:52;;;;;;;19.65;7.45;;;;;;;;;;5022388;28;20435;-70
2023/05/31 03:47:18;;;;;;;13.63;7.07;;;;;;;;;;5018213;28;20248;-70
2023/05/31 03:49:43;;;;;;;14.75;7.38;;;;;;;;;;5022352;28;20410;-70
2023/05/31 03:52:12;;;;;;;14.98;7.25;;;;;;;;;;5024572;28;20025;-70
2023/05/31 03:54:37;;;;;;;13.68;7.20;;;;;;;;;;5023290;28;20053;-71
2023/05/31 03:57:03;;;;;;;12.25;6.93;;;;;;;;;;5024192;28;20053;-70
2023/05/31 03:59:28;;;;;;;13.45;6.88;;;;;;;;;;5023320;28;20116;-70
2023/05/31 04:01:53;;;;;;;14.20;7.10;;;;;;;;;;5023541;28;20041;-70
2023/05/31 04:04:19;;;;;;;13.07;6.97;;;;;;;;;;5024049;28;20037;-70
2023/05/31 04:06:44;;;;;;;12.90;7.38;;;;;;;;;;5023446;28;20040;-70
2023/05/31 04:09:10;;;;;;;13.18;6.63;;;;;;;;;;5021249;28;20108;-71
2023/05/31 04:11:35;;;;;;;14.80;6.70;;;;;;;;;;5023158;28;20130;-71
2023/05/31 04:14:00;;;;;;;16.95;6.70;;;;;;;;;;5021843;28;20102;-71
2023/05/31 04:16:26;;;;;;;17.65;7.55;;;;;;;;;;5028324;28;20105;-71
2023/05/31 04:18:51;;;;;;;12.90;6.82;;;;;;;;;;5010562;28;20131;-71
2023/05/31 04:21:17;;;;;;;13.93;6.78;;;;;;;;;;5016938;28;20418;-71
2023/05/31 04:23:43;;;;;;;15.88;7.25;;;;;;;;;;5020928;28;20621;-70
2023/05/31 04:26:08;;;;;;;12.98;7.10;;;;;;;;;;5026812;28;20037;-71
2023/05/31 04:28:34;;;;;;;14.40;6.95;;;;;;;;;;5027294;28;20030;-70
2023/05/31 04:31:00;;;;;;;15.57;8.50;;;;;;;;;;5028206;28;20071;-71
2023/05/31 04:33:29;;;;;;;14.45;7.30;;;;;;;;;;5027593;28;20033;-71
2023/05/31 04:35:56;;;;;;;12.95;7.22;;;;;;;;;;5025999;28;20048;-70
2023/05/31 04:38:27;;;;;;;15.38;7.55;;;;;;;;;;5023178;28;20034;-71
2023/05/31 04:40:54;;;;;;;15.57;7.50;;;;;;;;;;5021500;28;20030;-70
2023/05/31 04:43:19;;;;;;;13.48;7.45;;;;;;;;;;5023308;28;20034;-71
2023/05/31 04:45:45;;;;;;;13.85;7.65;;;;;;;;;;5023713;28;20415;-71
2023/05/31 04:48:11;;;;;;;15.70;8.30;;;;;;;;;;5027378;28;20136;-71
2023/05/31 04:50:37;;;;;;;18.40;8.02;;;;;;;;;;5027715;28;20426;-70
2023/05/31 04:53:03;;;;;;;18.35;8.10;;;;;;;;;;5027145;28;20793;-70
2023/05/31 04:55:28;;;;;;;13.68;8.20;;;;;;;;;;5029316;28;20022;-70
2023/05/31 04:57:54;;;;;;;14.13;7.60;;;;;;;;;;5041809;28;20049;-70
2023/05/31 05:00:19;;;;;;;16.60;7.70;;;;;;;;;;5031500;28;20487;-71
2023/05/31 05:02:45;;;;;;;14.32;7.75;;;;;;;;;;5027389;28;20112;-70
2023/05/31 05:05:11;;;;;;;17.38;8.18;;;;;;;;;;5026976;28;20407;-70
2023/05/31 05:07:37;;;;;;;16.33;7.47;;;;;;;;;;5026782;28;20072;-71
2023/05/31 05:10:02;;;;;;;20.85;8.20;;;;;;;;;;5026792;28;20161;-71
2023/05/31 05:12:28;;;;;;;15.57;8.02;;;;;;;;;;5024938;28;20515;-71
2023/05/31 05:14:53;;;;;;;16.73;8.27;;;;;;;;;;5022338;28;20038;-70
2023/05/31 05:17:19;;;;;;;15.05;8.05;;;;;;;;;;5026479;28;20037;-70
2023/05/31 05:19:44;;;;;;;17.23;8.43;;;;;;;;;;5026576;28;20076;-70
2023/05/31 05:22:10;;;;;;;18.38;9.10;;;;;;;;;;5025890;28;20406;-71
2023/05/31 05:24:36;;;;;;;19.60;8.25;;;;;;;;;;5026895;28;20033;-71
2023/05/31 05:27:01;;;;;;;19.52;9.52;;;;;;;;;;5025536;28;20048;-70
2023/05/31 05:29:26;;;;;;;18.30;8.27;;;;;;;;;;5025315;28;20049;-71
2023/05/31 05:31:52;;;;;;;18.35;8.32;;;;;;;;;;5026552;28;20033;-71
2023/05/31 05:34:19;;;;;;;21.42;9.40;;;;;;;;;;5023586;28;20010;-70
2023/05/31 05:36:45;;;;;;;15.88;8.52;;;;;;;;;;5018997;28;20060;-71
2023/05/31 05:39:11;;;;;;;19.85;9.65;;;;;;;;;;5015562;28;20074;-70
2023/05/31 05:41:36;;;;;;;18.20;8.82;;;;;;;;;;5026085;28;20415;-71
2023/05/31 05:44:02;;;;;;;19.17;9.02;;;;;;;;;;5025089;28;20442;-71
2023/05/31 05:46:28;;;;;;;20.05;9.32;;;;;;;;;;5025938;28;20582;-70
2023/05/31 05:48:53;;;;;;;19.58;9.27;;;;;;;;;;5025619;28;20045;-71
2023/05/31 05:51:19;;;;;;;18.80;9.13;;;;;;;;;;5022333;28;20107;-71
2023/05/31 05:53:44;;;;;;;15.30;7.95;;;;;;;;;;5022185;28;20049;-71
2023/05/31 05:56:11;;;;;;;19.48;9.60;;;;;;;;;;5026241;28;20569;-71
2023/05/31 05:58:37;;;;;;;17.63;9.45;;;;;;;;;;5024689;28;20052;-71
2023/05/31 06:01:02;;;;;;;18.60;8.77;;;;;;;;;;5026199;28;20531;-70
2023/05/31 06:03:30;;;;;;;18.80;8.82;;;;;;;;;;5026064;28;20111;-70
2023/05/31 06:05:55;;;;;;;20.73;9.70;;;;;;;;;;5025093;28;20049;-71
2023/05/31 06:08:21;;;;;;;17.55;8.95;;;;;;;;;;5026071;28;20045;-71
2023/05/31 06:10:46;;;;;;;21.63;9.82;;;;;;;;;;5025640;28;20021;-71
2023/05/31 06:13:11;;;;;;;19.52;8.98;;;;;;;;;;5026767;28;20473;-71
2023/05/31 06:15:37;;;;;;;15.75;8.57;;;;;;;;;;5026376;28;20121;-71
2023/05/31 06:18:02;;;;;;;22.88;9.77;;;;;;;;;;5030029;28;20036;-71
2023/05/31 06:20:29;;;;;;;19.88;9.60;;;;;;;;;;5033487;28;20030;-70
2023/05/31 06:22:54;;;;;;;20.52;9.75;;;;;;;;;;5032931;28;20446;-70
2023/05/31 06:25:20;;;;;;;20.05;9.38;;;;;;;;;;5013735;28;20025;-71
2023/05/31 06:27:46;;;;;;;18.67;9.00;;;;;;;;;;5017018;28;20627;-71
2023/05/31 06:30:13;;;;;;;19.45;9.50;;;;;;;;;;5020589;28;20038;-71
2023/05/31 06:32:38;;;;;;;17.98;9.35;;;;;;;;;;5015195;28;20254;-70
2023/05/31 06:35:04;;;;;;;18.75;9.40;;;;;;;;;;5008414;28;20720;-70
2023/05/31 06:37:31;;;;;;;19.50;8.80;;;;;;;;;;5008190;28;20045;-70
2023/05/31 06:39:57;;;;;;;18.95;9.13;;;;;;;;;;5014184;28;20491;-71
2023/05/31 06:42:22;;;;;;;20.73;9.50;;;;;;;;;;5018557;28;20791;-70
2023/05/31 06:44:48;;;;;;;20.17;9.27;;;;;;;;;;5006760;28;20048;-71
2023/05/31 06:47:14;;;;;;;17.65;9.60;;;;;;;;;;5017960;28;20377;-71
2023/05/31 06:49:39;;;;;;;20.15;9.10;;;;;;;;;;5009564;28;20025;-70
2023/05/31 06:52:06;;;;;;;19.00;9.52;;;;;;;;;;5015660;28;20029;-70
2023/05/31 06:54:35;;;;;;;19.63;9.23;;;;;;;;;;5019728;28;20793;-71
2023/05/31 06:57:01;;;;;;;20.42;9.43;;;;;;;;;;5020908;28;20048;-70
2023/05/31 06:59:26;;;;;;;17.85;8.57;;;;;;;;;;5015426;28;20060;-70
2023/05/31 07:01:52;;;;;;;19.05;8.65;;;;;;;;;;5013269;28;20404;-70
2023/05/31 07:04:18;;;;;;;19.83;8.90;;;;;;;;;;5015078;28;20399;-71
2023/05/31 07:06:43;;;;;;;21.60;8.32;;;;;;;;;;5023637;28;20033;-70
2023/05/31 07:09:08;;;;;;;19.13;9.30;;;;;;;;;;5017885;28;20068;-71
2023/05/31 07:11:33;;;;;;;17.00;8.32;;;;;;;;;;5022384;28;20025;-70
2023/05/31 07:14:03;;;;;;;18.42;7.75;;;;;;;;;;5021399;28;20052;-71
2023/05/31 07:16:28;;;;;;;20.23;9.90;;;;;;;;;;5007698;28;20033;-71
2023/05/31 07:18:55;;;;;;;20.90;8.82;;;;;;;;;;5023401;28;20037;-71
2023/05/31 07:21:21;;;;;;;24.70;8.68;;;;;;;;;;5017685;28;20565;-70
2023/05/31 07:23:46;;;;;;;17.48;8.13;;;;;;;;;;5024025;28;20037;-71
2023/05/31 07:26:12;;;;;;;19.17;8.63;;;;;;;;;;5022781;28;20048;-70
2023/05/31 07:28:37;;;;;;;20.13;9.13;;;;;;;;;;5014884;28;20032;-71
2023/05/31 07:31:03;;;;;;;19.45;8.95;;;;;;;;;;5017416;28;20030;-70
2023/05/31 07:33:28;;;;;;;18.10;8.40;;;;;;;;;;5017571;28;20511;-70
2023/05/31 07:35:54;;;;;;;17.33;8.10;;;;;;;;;;5013838;28;20057;-70
2023/05/31 07:38:19;;;;;;;16.70;8.38;;;;;;;;;;5020709;28;20118;-72
2023/05/31 07:40:45;;;;;;;17.58;8.20;;;;;;;;;;5019411;28;20084;-70
2023/05/31 07:43:10;;;;;;;19.17;8.02;;;;;;;;;;5030149;28;20036;-71
2023/05/31 07:45:38;;;;;;;17.08;8.43;;;;;;;;;;5037129;28;20049;-70
2023/05/31 07:48:04;;;;;;;18.85;7.60;;;;;;;;;;5029899;28;20053;-70
2023/05/31 07:50:29;;;;;;;13.57;7.40;;;;;;;;;;5025358;28;20037;-70
2023/05/31 07:52:55;;;;;;;15.45;7.45;;;;;;;;;;5024069;28;20084;-71
2023/05/31 07:55:20;;;;;;;13.43;7.50;;;;;;;;;;5024783;28;20065;-71
2023/05/31 07:57:46;;;;;;;14.15;7.63;;;;;;;;;;5023328;28;20033;-70
2023/05/31 08:00:13;;;;;;;14.57;7.60;;;;;;;;;;5023963;28;20049;-71
2023/05/31 08:02:39;;;;;;;20.90;8.07;;;;;;;;;;5024077;28;20064;-70
2023/05/31 08:05:05;;;;;;;19.83;8.13;;;;;;;;;;5023866;28;20034;-70
2023/05/31 08:07:31;;;;;;;18.55;7.55;;;;;;;;;;5022248;28;20044;-70
2023/05/31 08:09:56;;;;;;;14.43;7.13;;;;;;;;;;5017126;28;20033;-70
2023/05/31 08:12:21;;;;;;;15.98;7.53;;;;;;;;;;5023450;28;20498;-70
2023/05/31 08:14:47;;;;;;;13.45;7.28;;;;;;;;;;5023148;28;20044;-70
2023/05/31 08:17:12;;;;;;;16.67;7.53;;;;;;;;;;5023492;28;20026;-70
2023/05/31 08:19:38;;;;;;;17.60;7.47;;;;;;;;;;5022780;28;20125;-70
2023/05/31 08:22:04;;;;;;;14.70;7.53;;;;;;;;;;5023452;28;20095;-70
2023/05/31 08:24:30;;;;;;;15.07;7.60;;;;;;;;;;5020813;28;20630;-70
2023/05/31 08:26:56;;;;;;;13.38;7.70;;;;;;;;;;5022398;28;20037;-70
2023/05/31 08:29:22;;;;;;;15.43;7.95;;;;;;;;;;5019287;28;20549;-70
2023/05/31 08:31:47;;;;;;;16.17;7.88;;;;;;;;;;5020301;28;20108;-70
2023/05/31 08:34:13;;;;;;;11.85;7.03;;;;;;;;;;5021754;28;20498;-71
2023/05/31 08:36:40;;;;;;;14.95;7.93;;;;;;;;;;5020740;28;20113;-72
2023/05/31 08:39:07;;;;;;;13.30;6.80;;;;;;;;;;5020061;28;20057;-71
2023/05/31 08:41:44;;;;;;;15.25;7.15;;;;;;;;;;5022573;28;20125;-71
2023/05/31 08:44:10;;;;;;;16.38;7.28;;;;;;;;;;5023620;28;20033;-71
2023/05/31 08:46:36;;;;;;;16.45;7.22;;;;;;;;;;5022711;28;20079;-70
2023/05/31 08:49:12;;;;;;;13.95;7.10;;;;;;;;;;5023438;28;20045;-71
2023/05/31 08:51:39;;;;;;;15.55;7.25;;;;;;;;;;5014042;28;20044;-71
2023/05/31 08:54:06;;;;;;;20.17;7.18;;;;;;;;;;5021893;28;20032;-70
2023/05/31 08:56:32;;;;;;;16.88;6.88;;;;;;;;;;5023445;28;20038;-71
2023/05/31 08:58:58;;;;;;;18.08;7.43;;;;;;;;;;5023470;28;20026;-71
2023/05/31 09:01:25;;;;;;;21.08;8.50;;;;;;;;;;5026292;28;20026;-70
2023/05/31 09:03:53;;;;;;;13.77;7.13;;;;;;;;;;5027601;28;20049;-71
2023/05/31 09:06:18;;;;;;;17.77;7.57;;;;;;;;;;5031136;28;20033;-71
2023/05/31 09:08:43;;;;;;;14.90;6.47;;;;;;;;;;5034962;28;20036;-71
2023/05/31 09:11:09;;;;;;;18.00;6.88;;;;;;;;;;5035318;28;20523;-71
2023/05/31 09:13:34;;;;;;;24.60;7.65;;;;;;;;;;5024907;28;20022;-71
2023/05/31 09:16:01;;;;;;;39.53;8.20;;;;;;;;;;5027260;28;20038;-71
2023/05/31 09:18:30;;;;;;;15.63;6.50;;;;;;;;;;5026425;28;20071;-71
2023/05/31 09:20:56;;;;;;;14.52;7.07;;;;;;;;;;5026557;28;20037;-71
2023/05/31 09:23:21;;;;;;;16.17;7.45;;;;;;;;;;5026109;28;20568;-71
2023/05/31 09:25:51;;;;;;;15.73;6.20;;;;;;;;;;5026864;28;20025;-71
2023/05/31 09:28:18;;;;;;;11.13;6.32;;;;;;;;;;5026174;28;20041;-71
2023/05/31 09:30:44;;;;;;;11.60;6.30;;;;;;;;;;5026410;28;20732;-70
2023/05/31 09:33:10;;;;;;;15.50;6.68;;;;;;;;;;5024807;28;20518;-71
2023/05/31 09:35:36;;;;;;;13.05;7.13;;;;;;;;;;5026331;28;20048;-71
2023/05/31 09:38:06;;;;;;;18.90;7.07;;;;;;;;;;5024072;28;20045;-70
2023/05/31 09:40:32;;;;;;;13.15;6.18;;;;;;;;;;5025812;28;20067;-70
2023/05/31 09:42:58;;;;;;;11.25;5.90;;;;;;;;;;5025105;28;20060;-70
2023/05/31 09:45:24;;;;;;;16.17;6.00;;;;;;;;;;5026103;28;20061;-71
2023/05/31 09:47:50;;;;;;;21.85;6.20;;;;;;;;;;5025032;28;20045;-71
2023/05/31 09:50:23;;;;;;;12.63;5.80;;;;;;;;;;5025557;28;20041;-71
2023/05/31 09:52:54;;;;;;;15.63;6.10;;;;;;;;;;5025128;28;20040;-71
2023/05/31 09:55:20;;;;;;;14.02;5.85;;;;;;;;;;5024371;28;20029;-71
2023/05/31 09:57:45;;;;;;;12.85;5.25;;;;;;;;;;5018804;28;20095;-71
2023/05/31 10:00:14;;;;;;;14.85;5.80;;;;;;;;;;5024334;28;20037;-71
2023/05/31 10:02:58;;;;;;;15.43;6.05;;;;;;;;;;5023539;28;20045;-71
2023/05/31 10:05:23;;;;;;;;;;;;;;;;;;5022100;28;20064;-70
2023/05/31 10:07:53;;;;;;;15.27;4.88;;;;;;;;;;5023788;28;20303;-71
2023/05/31 10:10:20;;;;;;;15.95;5.82;;;;;;;;;;5024497;28;20146;-71
2023/05/31 10:12:54;;;;;;;10.48;5.65;;;;;;;;;;5025140;28;20033;-71
2023/05/31 10:15:26;;;;;;;12.90;5.05;;;;;;;;;;5024918;28;20686;-71
2023/05/31 10:18:02;;;;;;;12.07;5.30;;;;;;;;;;5023558;28;20037;-71
2023/05/31 10:20:45;;;;;;;15.70;5.50;;;;;;;;;;5025242;28;20084;-72
2023/05/31 10:23:17;;;;;;;25.38;5.95;;;;;;;;;;5020895;28;20034;-72
2023/05/31 10:25:58;;;;;;;14.65;5.78;;;;;;;;;;5025908;28;20029;-72
2023/05/31 10:28:28;;;;;;;9.85;4.90;;;;;;;;;;5027051;28;20037;-72
2023/05/31 10:30:54;;;;;;;9.43;5.20;;;;;;;;;;5030814;28;20057;-72
2023/05/31 10:33:20;;;;;;;14.98;4.72;;;;;;;;;;5036412;28;20056;-72
2023/05/31 10:35:46;;;;;;;21.58;6.10;;;;;;;;;;5038054;28;20049;-72
2023/05/31 10:38:13;;;;;;;12.68;5.18;;;;;;;;;;5021547;28;20033;-72
2023/05/31 10:40:48;;;;;;;10.38;4.82;;;;;;;;;;5026279;28;20053;-71
2023/05/31 10:43:36;;;;;;;10.90;4.22;;;;;;;;;;5026087;28;20483;-72
2023/05/31 10:46:04;;;;;;;15.20;4.68;;;;;;;;;;5023314;28;20041;-72
2023/05/31 10:48:52;;;;;;;15.77;4.75;;;;;;;;;;5024999;28;20073;-72
2023/05/31 10:51:17;;;;;;;12.75;4.15;;;;;;;;;;5024719;28;20050;-72
2023/05/31 10:53:48;;;;;;;9.05;4.03;;;;;;;;;;5025254;28;20041;-72
2023/05/31 10:56:14;;;;;;;8.48;4.82;;;;;;;;;;5020816;28;20044;-72
2023/05/31 10:58:41;;;;;;;12.30;4.53;;;;;;;;;;5009417;28;20022;-72
2023/05/31 11:01:09;;;;;;;12.73;4.07;;;;;;;;;;5020672;28;20104;-72
2023/05/31 11:03:36;;;;;;;10.25;4.38;;;;;;;;;;5024749;28;20073;-72
2023/05/31 11:06:06;;;;;;;6.32;3.85;;;;;;;;;;5024652;28;20041;-72
2023/05/31 11:08:32;;;;;;;8.30;3.88;;;;;;;;;;5013864;28;20049;-72
2023/05/31 11:11:32;;;;;;;6.35;3.67;;;;;;;;;;5020364;28;20053;-72
2023/05/31 11:14:00;;;;;;;5.70;2.67;;;;;;;;;;5022266;28;20041;-72
2023/05/31 11:16:33;;;;;;;9.93;3.45;;;;;;;;;;5002290;28;20042;-72
2023/05/31 11:19:06;;;;;;;14.15;4.70;;;;;;;;;;5021827;28;20141;-72
2023/05/31 11:21:50;;;;;;;10.23;3.53;;;;;;;;;;5023424;28;20048;-72
2023/05/31 11:24:37;;;;;;;7.85;2.80;;;;;;;;;;5015367;28;20576;-72
2023/05/31 11:27:04;;;;;;;8.63;3.10;;;;;;;;;;5022859;28;20033;-72
2023/05/31 11:29:46;;;;;;;8.02;3.22;;;;;;;;;;5024384;28;20442;-71
2023/05/31 11:32:12;;;;;;;6.25;3.00;;;;;;;;;;5022138;28;20033;-71
2023/05/31 11:34:53;;;;;;;6.50;2.60;;;;;;;;;;5023144;28;20509;-72
2023/05/31 11:37:21;;;;;;;7.75;2.72;;;;;;;;;;5016748;28;20088;-72
2023/05/31 11:39:47;;;;;;;5.72;2.55;;;;;;;;;;5025242;28;20531;-72
2023/05/31 11:42:14;;;;;;;12.25;3.00;;;;;;;;;;5006414;28;20060;-72
2023/05/31 11:44:45;;;;;;;7.70;2.83;;;;;;;;;;5023274;28;20034;-72
2023/05/31 11:47:18;;;;;;;9.13;3.00;;;;;;;;;;5025857;28;20102;-73
2023/05/31 11:49:44;;;;;;;6.80;3.10;;;;;;;;;;5024424;28;20063;-72
2023/05/31 11:52:15;;;;;;;5.82;2.97;;;;;;;;;;5026648;28;20025;-72
2023/05/31 11:54:43;;;;;;;9.02;2.80;;;;;;;;;;5028544;28;20044;-72
2023/05/31 11:57:08;;;;;;;6.25;3.05;;;;;;;;;;5035629;28;20118;-72
2023/05/31 11:59:35;;;;;;;7.00;2.90;;;;;;;;;;5029538;28;20470;-72
2023/05/31 12:02:05;;;;;;;4.88;2.58;;;;;;;;;;5025155;28;20069;-72
2023/05/31 12:04:41;;;;;;;7.75;2.65;;;;;;;;;;5023538;28;20113;-72
2023/05/31 12:07:22;;;;;;;4.78;2.95;;;;;;;;;;5023556;28;20045;-72
2023/05/31 12:09:47;;;;;;;7.07;2.90;;;;;;;;;;5025850;28;20038;-72
2023/05/31 12:12:13;;;;;;;4.05;2.60;;;;;;;;;;5022821;28;20738;-72
2023/05/31 12:14:52;;;;;;;4.25;2.88;;;;;;;;;;5021500;28;20539;-72
2023/05/31 12:17:17;;;;;;;4.72;3.03;;;;;;;;;;5024794;28;20057;-72
2023/05/31 12:19:42;;;;;;;5.32;2.90;;;;;;;;;;5024782;28;20052;-72
2023/05/31 12:22:08;;;;;;;5.30;3.13;;;;;;;;;;5024984;28;20117;-72
2023/05/31 12:24:33;;;;;;;4.95;2.80;;;;;;;;;;5025621;28;20041;-72
2023/05/31 12:26:59;;;;;;;5.70;2.65;;;;;;;;;;5023714;28;20033;-72
2023/05/31 12:29:30;;;;;;;6.85;2.78;;;;;;;;;;5025492;28;20396;-72
2023/05/31 12:32:05;;;;;;;6.65;2.78;;;;;;;;;;5023193;28;20031;-72
2023/05/31 12:34:35;;;;;;;4.55;2.60;;;;;;;;;;5022815;28;20498;-72
2023/05/31 12:37:08;;;;;;;7.28;3.13;;;;;;;;;;5021786;28;20034;-72
2023/05/31 12:39:34;;;;;;;8.43;2.70;;;;;;;;;;5024896;28;20886;-72
2023/05/31 12:42:01;;;;;;;8.10;2.67;;;;;;;;;;5028633;28;20057;-72
2023/05/31 12:44:28;;;;;;;4.70;2.60;;;;;;;;;;5028311;28;20048;-71
2023/05/31 12:46:59;;;;;;;4.55;2.53;;;;;;;;;;5028978;28;20036;-71
2023/05/31 12:49:27;;;;;;;4.80;3.10;;;;;;;;;;5028470;28;20156;-72
2023/05/31 12:52:03;;;;;;;6.18;2.85;;;;;;;;;;5027035;28;20033;-72
2023/05/31 12:54:31;;;;;;;4.38;2.72;;;;;;;;;;5027368;28;20037;-72
2023/05/31 12:56:59;;;;;;;5.88;2.80;;;;;;;;;;5028331;28;20037;-72
2023/05/31 12:59:25;;;;;;;4.47;2.67;;;;;;;;;;5026571;28;20041;-72
2023/05/31 13:01:51;;;;;;;3.78;2.10;;;;;;;;;;5027868;28;20502;-71
2023/05/31 13:04:16;;;;;;;7.90;2.60;;;;;;;;;;5026851;28;20025;-72
2023/05/31 13:06:42;;;;;;;10.68;2.60;;;;;;;;;;5028777;28;20132;-72
2023/05/31 13:09:08;;;;;;;7.40;2.65;;;;;;;;;;5024529;28;20521;-71
2023/05/31 13:11:39;;;;;;;4.28;2.30;;;;;;;;;;5023647;28;20045;-71
2023/05/31 13:14:08;;;;;;;6.50;2.75;;;;;;;;;;5026322;28;20044;-72
2023/05/31 13:16:34;;;;;;;4.15;2.72;;;;;;;;;;5030143;28;20025;-72
2023/05/31 13:19:01;;;;;;;6.57;2.80;;;;;;;;;;5033992;28;20036;-72
2023/05/31 13:21:28;;;;;;;3.30;2.40;;;;;;;;;;5040314;28;20616;-72
2023/05/31 13:23:54;;;;;;;7.03;2.60;;;;;;;;;;5036217;28;20047;-72
2023/05/31 13:26:21;;;;;;;5.43;3.05;;;;;;;;;;5027975;28;20041;-72
2023/05/31 13:28:47;;;;;;;4.53;2.72;;;;;;;;;;5027094;28;20053;-72
2023/05/31 13:31:12;;;;;;;3.88;2.40;;;;;;;;;;5027267;28;20068;-72
2023/05/31 13:33:38;;;;;;;8.70;2.90;;;;;;;;;;5024090;28;20045;-72
2023/05/31 13:36:04;;;;;;;6.32;2.33;;;;;;;;;;5026670;28;20044;-72
2023/05/31 13:38:30;;;;;;;3.78;2.55;;;;;;;;;;5023479;28;20542;-72
2023/05/31 13:40:55;;;;;;;6.32;2.80;;;;;;;;;;5026856;28;20025;-72
2023/05/31 13:43:25;;;;;;;8.13;3.35;;;;;;;;;;5026849;28;20079;-72
2023/05/31 13:45:52;;;;;;;6.72;2.47;;;;;;;;;;5025598;28;20041;-72
2023/05/31 13:48:18;;;;;;;6.22;2.80;;;;;;;;;;5026985;28;20041;-72
2023/05/31 13:50:43;;;;;;;6.50;2.60;;;;;;;;;;5026220;28;20057;-72
2023/05/31 13:53:09;;;;;;;4.68;2.20;;;;;;;;;;5026330;28;20045;-72
2023/05/31 13:55:36;;;;;;;6.10;3.05;;;;;;;;;;5026674;28;20053;-72
2023/05/31 13:58:02;;;;;;;5.18;2.65;;;;;;;;;;5026025;28;20057;-72
2023/05/31 14:00:32;;;;;;;5.72;3.03;;;;;;;;;;5024586;28;20045;-72
2023/05/31 14:02:59;;;;;;;4.63;2.20;;;;;;;;;;5017244;28;20049;-71
2023/05/31 14:05:27;;;;;;;5.05;2.50;;;;;;;;;;5026258;28;20111;-72
2023/05/31 14:07:53;;;;;;;6.47;2.58;;;;;;;;;;5026915;28;20040;-72
2023/05/31 14:10:19;;;;;;;8.25;2.80;;;;;;;;;;5027028;28;20486;-72
2023/05/31 14:12:44;;;;;;;4.65;2.28;;;;;;;;;;5021563;28;20045;-73
2023/05/31 14:15:10;;;;;;;4.97;2.22;;;;;;;;;;5021754;28;20048;-72
2023/05/31 14:17:36;;;;;;;7.70;2.97;;;;;;;;;;5026478;28;20466;-72
2023/05/31 14:20:04;;;;;;;6.93;3.38;;;;;;;;;;5024853;28;20041;-72
2023/05/31 14:22:29;;;;;;;9.38;3.00;;;;;;;;;;5026494;28;20032;-72
2023/05/31 14:24:55;;;;;;;5.88;2.65;;;;;;;;;;5026215;28;20045;-72
2023/05/31 14:27:20;;;;;;;4.65;2.50;;;;;;;;;;5018629;28;20064;-72
2023/05/31 14:29:46;;;;;;;4.13;2.70;;;;;;;;;;5026459;28;20158;-72
2023/05/31 14:32:14;;;;;;;5.63;3.20;;;;;;;;;;5025688;28;20045;-72
2023/05/31 14:34:40;;;;;;;7.38;2.88;;;;;;;;;;5027624;28;20032;-72
2023/05/31 14:37:05;;;;;;;3.65;2.90;;;;;;;;;;5026898;28;20033;-72